Terminal Aerodrome Forecast
Issued by NWS

Home | Current Version | Previous Version | Text Only | Print | Product List | Glossary On
Versions: 1 2 3 4 5 6 7 8 9 10 11 12 13 14 15 16 17 18 19 20 21 22 23
000
FTUS41 KBTV 291723
TAFSLK
TAF
KSLK 291723Z 2918/3018 24005KT P6SM SCT045 BKN200
     FM300000 00000KT P6SM SCT200
     FM300600 00000KT 5SM BR SCT250
     FM300800 00000KT 3SM BR SCT250
     FM301100 22005KT 6SM HZ FEW050 BKN200
     FM301330 22008KT P6SM VCSH SCT035 BKN120
     FM301500 22009KT 5SM -SHRA BR BKN035=

USA.gov is the U.S. government's official web portal to all federal, state and local government web resources and services.